aviador You're here:

KRVS Decoded Metar

TULSA in OK, USA
Report Time2017-10-21 15:53:00
UTC Time2017-10-21 15:57:26
Flight Rules mvfr MVFR
Wind170° at 13 Gusting to 19 kt
W.Decomp.*RWY 19: 11.7 kt HW 5.7 kt LCW
RWY 13: 10.8 kt HW 7.3 kt RCW
W.Rank170° ranks 1
Current wind is above 170° avg. (7.8)
Visibility9999 m
Phenomena:N/A
Clouds:Overcast 020 Hf
Expected CloudBase > 2,000 ft AGL from Temp-Dew spread
Ceiling2,000 ft
Temp23°C (ISA +9)
Dew Point18°C (74% RH)
AAT21.2°C
QNH1013 hPa
Density Alt2,014 ft
Elevation656 ft
Report Wrong Elevation
Raw Report
METAR KRVS 211553Z 17013G19KT 10SM OVC020 23/18 A2990 RMK AO2 SLP128
T02330178=

Extra information for KRVS:More info

Metar Taf Metar & Taf Last 4 Metars F.Rules Stats Wind Profile Meteogram Temp Stats Airport Information Weather charts Add Link Nearby VenuesMetar ALERT Operation Metar Decoded Social comments

AIRNAV info for KRVS